Ne plus se rappeler de moi
Bonjour et Bienvenue
Pas de session ouverte
Vendredi 19/12/2014
d:\inetpub\wwwroot\acrroussillon\reservation\ACR\IMAGES\IMG1.JPGd:\inetpub\wwwroot\acrroussillon\reservation\ACR\IMAGES\IMG2.JPGd:\inetpub\wwwroot\acrroussillon\reservation\ACR/IMAGES/IMG3.jpg
00:00:00
Horaires du 19/12/2014 (Données à titre indicatif seulement).
Lever du soleil : 08h14 - Coucher du soleil : 17h17 (Heure Locale)
Jour aéronautique : 07h44 - Nuit aéronautique : 17h47 (Heure Locale)
Planning des réservations des aéronefs
Planning des réservations des aéronefs
2014/12/19 02:00
LFMP 190200Z AUTO 30011KT 9999 NSC 13/09 Q1026
Planning des réservations des aéronefs
2014/12/18 18:15
TAF LFMP 181700Z 1818/1918 30015KT 9999 NSC
TEMPO 1818/1905 30020G35KT
TEMPO 1914/1918 30020G35KT
Informations sur les aéronefs
Informations sur les aéronefs
Modifications des Types de vols
ATTENTION PLUS DE PAIEMENT EN LIGNE DEPUIS LA MAISON
AEROCLUB DU ROUSSILLON. AVENUE MAURICE BELLONTE. 66000 PERPIGNAN. Tel : 04.68.73.48.18 Fax : 09.55.16.18.97 Courriel : aeroclub-roussillon@hotmail.fr
 METAR / TAF
LIENS UTILES
envoyer un e-mail
d:\inetpub\wwwroot\acrroussillon\reservation\ACR/IMAGES/Logo.jpg
Identifiez vous pour interaction
d:\inetpub\wwwroot\acrroussillon\reservation\ACR/IMAGES/Logo.jpg
Aéro-Club du Roussillon